< < Back
Terminal Aerodrome Forecast


Current Version              Previous Versions:   1  2  3  4  5  6  7  8  9  

Terminal Aerodrome Forecast

676
FTUS44 KMRX 261120
TAFCHA
TAF
KCHA 261120Z 2612/2712 VRB03KT P6SM FEW250
     FM261500 04005KT P6SM SCT060
     FM262000 07005KT P6SM VCTS BKN060CB
     FM270100 08003KT P6SM SCT250=

Latest METAR

900
SAUS80 KWBC 270200
MTRCHA
METAR KCHA 270153Z 00000KT 10SM FEW060 SCT075 SCT150 SCT250 26/22 A3009
RMK AO2 SLP180 T02560217 $


USA.gov is the U.S. government's official web portal to all federal, state and local government web resources and services.